createdAt,value
2019-06-15T00:00:59.620Z,92.34
2019-06-15T00:03:27.974Z,89.95
2019-06-15T00:05:57.314Z,93.57
2019-06-15T00:08:25.690Z,92.44
2019-06-15T00:13:28.345Z,91.49
2019-06-15T00:15:57.600Z,91.27
2019-06-15T00:18:25.956Z,91.26
2019-06-15T00:20:58.067Z,92.25
2019-06-15T00:23:26.471Z,91.09
2019-06-15T00:28:44.049Z,89.67
2019-06-15T00:31:14.341Z,89.45
2019-06-15T00:36:29.957Z,88.82
2019-06-15T00:38:59.277Z,88.52
2019-06-15T00:41:27.637Z,88.34
2019-06-15T00:44:07.861Z,88.64
2019-06-15T00:46:42.797Z,88.59
2019-06-15T00:49:14.942Z,88.37
2019-06-15T00:54:17.639Z,88.93
2019-06-15T00:59:20.355Z,90.67
2019-06-15T01:02:07.537Z,89.33
2019-06-15T01:05:01.189Z,90.95
2019-06-15T01:07:30.482Z,91.20
2019-06-15T01:15:19.321Z,89.88
2019-06-15T01:17:59.024Z,90.69
2019-06-15T01:20:27.393Z,93.54
2019-06-15T01:28:15.130Z,91.48
2019-06-15T01:30:48.241Z,94.22
2019-06-15T01:33:16.584Z,94.25
2019-06-15T01:38:20.165Z,94.00
2019-06-15T01:40:53.196Z,92.80
2019-06-15T01:43:21.598Z,92.92
2019-06-15T01:45:53.670Z,92.27
2019-06-15T01:48:22.941Z,93.53
2019-06-15T01:51:01.330Z,91.73
2019-06-15T01:53:29.680Z,92.07
2019-06-15T01:56:14.728Z,91.63
2019-06-15T01:59:12.559Z,94.44
2019-06-15T02:01:40.914Z,96.71
2019-06-15T02:07:09.161Z,97.36
2019-06-15T02:10:02.852Z,97.11
2019-06-15T02:12:31.206Z,95.12
2019-06-15T02:14:59.554Z,93.95
2019-06-15T02:17:27.947Z,95.20
2019-06-15T02:20:06.519Z,96.75
2019-06-15T02:22:37.809Z,97.11
2019-06-15T02:25:06.188Z,95.77
2019-06-15T02:31:07.929Z,96.11
2019-06-15T02:41:35.047Z,97.49
2019-06-15T02:44:05.334Z,97.65
2019-06-15T02:46:33.686Z,99.88
2019-06-15T02:49:02.041Z,99.82
2019-06-15T02:51:30.447Z,100.00
2019-06-15T02:54:02.644Z,100.00
2019-06-15T02:56:31.041Z,100.00
2019-06-15T02:58:59.403Z,100.00
2019-06-15T03:01:27.756Z,100.00
2019-06-15T03:06:30.347Z,100.00
2019-06-15T03:09:05.988Z,100.00
2019-06-15T03:11:35.280Z,100.00
2019-06-15T03:14:14.734Z,100.00
2019-06-15T03:17:13.457Z,100.00
2019-06-15T03:19:45.568Z,100.00
2019-06-15T03:22:14.841Z,100.00
2019-06-15T03:27:25.502Z,100.00
2019-06-15T03:29:53.858Z,100.00
2019-06-15T03:32:22.281Z,100.00
2019-06-15T03:35:14.616Z,100.00
2019-06-15T03:37:42.974Z,100.00
2019-06-15T03:40:14.958Z,100.00
2019-06-15T03:42:43.307Z,100.00
2019-06-15T03:45:13.616Z,100.00
2019-06-15T03:47:58.822Z,100.00
2019-06-15T03:50:27.186Z,100.00
2019-06-15T03:55:31.943Z,100.00
2019-06-15T03:58:15.256Z,100.00
2019-06-15T04:01:13.254Z,100.00
2019-06-15T04:06:27.892Z,100.00
2019-06-15T04:08:56.268Z,100.00
2019-06-15T04:11:24.670Z,100.00
2019-06-15T04:14:12.316Z,100.00
2019-06-15T04:16:46.053Z,100.00
2019-06-15T04:19:14.416Z,100.00
2019-06-15T04:22:08.879Z,100.00
2019-06-15T04:24:40.713Z,100.00
2019-06-15T04:27:14.739Z,100.00
2019-06-15T04:29:47.589Z,100.00
2019-06-15T04:32:15.936Z,100.00
2019-06-15T04:35:14.034Z,100.00
2019-06-15T04:40:18.662Z,100.00
2019-06-15T04:43:06.323Z,100.00
2019-06-15T04:45:40.979Z,100.00
2019-06-15T04:48:14.939Z,100.00
2019-06-15T04:53:18.463Z,97.04
2019-06-15T04:55:48.707Z,95.25
2019-06-15T04:58:17.058Z,90.00
2019-06-15T05:00:52.803Z,88.12
2019-06-15T05:03:21.179Z,89.81
2019-06-15T05:06:06.004Z,90.31
2019-06-15T05:08:39.385Z,90.54
2019-06-15T05:11:13.409Z,88.75
2019-06-15T05:13:41.752Z,82.70
2019-06-15T05:16:37.528Z,81.48
2019-06-15T05:19:05.872Z,82.11
2019-06-15T05:21:34.229Z,78.58
2019-06-15T05:24:02.608Z,74.60
2019-06-15T05:29:20.019Z,68.28
2019-06-15T05:31:48.407Z,71.90
2019-06-15T05:34:18.676Z,68.13
2019-06-15T05:36:59.272Z,67.04
2019-06-15T05:39:27.680Z,63.92
2019-06-15T05:42:18.072Z,62.33
2019-06-15T05:44:50.900Z,62.18
2019-06-15T05:47:19.292Z,62.91
2019-06-15T05:50:17.196Z,61.40
2019-06-15T05:52:51.324Z,61.02
2019-06-15T05:55:19.723Z,60.43
2019-06-15T05:58:17.715Z,60.18
2019-06-15T06:01:14.524Z,61.65
2019-06-15T06:09:44.760Z,61.65
2019-06-15T06:12:13.144Z,61.89
2019-06-15T06:14:42.398Z,60.49
2019-06-15T06:17:10.761Z,59.71
2019-06-15T06:19:40.002Z,60.50
2019-06-15T06:24:42.689Z,59.88
2019-06-15T06:27:36.425Z,59.64
2019-06-15T06:29:57.222Z,59.62
2019-06-15T06:32:36.063Z,59.43
2019-06-15T06:35:30.383Z,60.44
2019-06-15T06:37:58.768Z,60.56
2019-06-15T06:40:40.900Z,60.92
2019-06-15T06:43:39.252Z,60.37
2019-06-15T06:46:07.590Z,61.56
2019-06-15T06:48:40.529Z,57.56
2019-06-15T06:51:09.816Z,57.75
2019-06-15T06:56:38.766Z,57.52
2019-06-15T06:59:11.121Z,60.18
2019-06-15T07:04:29.196Z,58.44
2019-06-15T07:06:57.545Z,59.71
2019-06-15T07:09:39.756Z,57.38
2019-06-15T07:14:44.447Z,57.89
2019-06-15T07:17:14.749Z,57.73
2019-06-15T07:19:43.091Z,57.44
2019-06-15T07:22:30.944Z,58.63
2019-06-15T07:30:39.949Z,59.39
2019-06-15T07:35:42.632Z,58.81
2019-06-15T07:38:28.076Z,57.60
2019-06-15T07:40:56.392Z,57.56
2019-06-15T07:43:28.279Z,58.12
2019-06-15T07:46:01.996Z,59.19
2019-06-15T07:48:30.388Z,59.84
2019-06-15T07:51:11.161Z,56.41
2019-06-15T07:53:39.525Z,56.64
2019-06-15T07:56:09.775Z,58.67
2019-06-15T07:58:38.143Z,58.51
2019-06-15T08:01:07.465Z,57.60
2019-06-15T08:03:36.776Z,57.17
2019-06-15T08:06:06.062Z,55.06
2019-06-15T08:08:34.417Z,55.99
2019-06-15T08:13:37.116Z,56.11
2019-06-15T08:16:11.696Z,56.43
2019-06-15T08:18:40.043Z,56.63
2019-06-15T08:21:08.397Z,59.72
2019-06-15T08:23:36.801Z,55.45
2019-06-15T08:28:44.171Z,55.75
2019-06-15T08:31:21.025Z,56.30
2019-06-15T08:36:57.020Z,57.54
2019-06-15T08:39:28.772Z,56.17
2019-06-15T08:42:10.114Z,55.48
2019-06-15T08:44:38.460Z,55.27
2019-06-15T08:49:42.104Z,55.79
2019-06-15T08:52:13.861Z,55.73
2019-06-15T08:54:42.274Z,56.82
2019-06-15T08:57:24.069Z,52.54
2019-06-15T08:59:53.362Z,52.55
2019-06-15T09:02:27.777Z,52.32
2019-06-15T09:04:58.032Z,52.69
2019-06-15T09:07:27.269Z,53.12
2019-06-15T09:10:08.363Z,52.43
2019-06-15T09:13:04.330Z,51.54
2019-06-15T09:15:46.104Z,54.05
2019-06-15T09:18:14.427Z,50.74
2019-06-15T09:20:42.795Z,51.18
2019-06-15T09:23:12.036Z,49.97
2019-06-15T09:25:52.599Z,49.60
2019-06-15T09:28:20.944Z,50.63
2019-06-15T09:30:49.343Z,47.26
2019-06-15T09:33:17.713Z,46.39
2019-06-15T09:35:54.101Z,45.99
2019-06-15T09:38:22.721Z,45.84
2019-06-15T09:40:56.118Z,45.29
2019-06-15T09:43:24.465Z,46.26
2019-06-15T09:45:52.826Z,44.41
2019-06-15T09:48:21.160Z,43.90
2019-06-15T09:50:55.254Z,45.38
2019-06-15T09:53:23.605Z,49.10
2019-06-15T09:56:06.594Z,53.26
2019-06-15T09:58:47.468Z,53.55
2019-06-15T10:01:16.729Z,50.11
2019-06-15T10:03:50.764Z,50.17
2019-06-15T10:06:19.105Z,49.32
2019-06-15T10:08:55.140Z,46.08
2019-06-15T10:11:23.498Z,43.64
2019-06-15T10:13:56.998Z,42.00
2019-06-15T10:19:06.757Z,44.17
2019-06-15T10:21:39.796Z,44.82
2019-06-15T10:24:27.600Z,43.88
2019-06-15T10:26:55.982Z,43.10
2019-06-15T10:29:41.904Z,43.78
2019-06-15T10:32:08.445Z,43.75
2019-06-15T10:34:40.458Z,41.57
2019-06-15T10:39:51.037Z,43.86
2019-06-15T10:42:22.713Z,45.19
2019-06-15T10:44:47.773Z,43.19
2019-06-15T10:47:17.064Z,44.62
2019-06-15T10:49:45.416Z,43.31
2019-06-15T10:52:31.085Z,42.85
2019-06-15T10:55:00.591Z,42.88
2019-06-15T10:57:39.299Z,42.79
2019-06-15T11:00:08.419Z,40.74
2019-06-15T11:02:40.261Z,43.78
2019-06-15T11:05:08.648Z,46.12
2019-06-15T11:07:36.981Z,44.00
2019-06-15T11:10:13.317Z,46.65
2019-06-15T11:12:46.342Z,44.46
2019-06-15T11:17:58.623Z,42.97
2019-06-15T11:20:39.516Z,44.09
2019-06-15T11:25:51.166Z,42.88
2019-06-15T11:28:27.967Z,45.50
2019-06-15T11:30:56.357Z,46.33
2019-06-15T11:33:36.658Z,44.97
2019-06-15T11:38:40.365Z,47.42
2019-06-15T11:41:22.000Z,44.98
2019-06-15T11:43:50.339Z,42.73
2019-06-15T11:46:33.349Z,39.73
2019-06-15T11:49:19.354Z,38.66
2019-06-15T11:51:47.743Z,43.63
2019-06-15T11:54:23.354Z,40.33
2019-06-15T11:56:51.716Z,39.70
2019-06-15T11:59:32.508Z,38.12
2019-06-15T12:02:27.286Z,41.34
2019-06-15T12:04:58.689Z,45.06
2019-06-15T12:07:28.062Z,46.06
2019-06-15T12:09:56.412Z,43.90
2019-06-15T12:12:36.858Z,38.46
2019-06-15T12:15:07.201Z,38.57
2019-06-15T12:17:39.881Z,38.23
2019-06-15T12:20:10.200Z,38.67
2019-06-15T12:22:38.553Z,41.91
2019-06-15T12:25:21.080Z,41.67
2019-06-15T12:27:49.444Z,40.74
2019-06-15T12:33:03.517Z,40.51
2019-06-15T12:38:17.266Z,39.77
2019-06-15T12:40:45.601Z,37.90
2019-06-15T12:43:17.357Z,34.67
2019-06-15T12:45:45.716Z,35.46
2019-06-15T12:48:15.434Z,35.60
2019-06-15T12:50:44.465Z,36.97
2019-06-15T12:56:01.240Z,34.98
2019-06-15T12:58:37.780Z,35.24
2019-06-15T13:01:16.752Z,33.85
2019-06-15T13:03:45.180Z,34.58
2019-06-15T13:06:19.500Z,38.30
2019-06-15T13:08:47.893Z,37.28
2019-06-15T13:13:50.649Z,38.14
2019-06-15T13:16:38.583Z,38.20
2019-06-15T13:18:52.829Z,37.57
2019-06-15T13:21:21.184Z,39.18
2019-06-15T13:23:49.591Z,39.75
2019-06-15T13:26:17.956Z,40.09
2019-06-15T13:28:46.356Z,40.97
2019-06-15T13:31:18.694Z,41.56
2019-06-15T13:33:46.667Z,41.25
2019-06-15T13:36:39.105Z,41.29
2019-06-15T13:39:07.505Z,41.71
2019-06-15T13:41:39.426Z,41.75
2019-06-15T13:44:14.064Z,43.28
2019-06-15T13:46:42.419Z,44.21
2019-06-15T13:49:14.135Z,44.59
2019-06-15T13:51:42.469Z,41.97
2019-06-15T13:54:13.764Z,41.95
2019-06-15T13:56:42.109Z,46.18
2019-06-15T13:59:33.965Z,44.03
2019-06-15T14:02:17.165Z,42.90
2019-06-15T14:04:45.555Z,41.33
2019-06-15T14:07:18.503Z,42.97
2019-06-15T14:09:46.846Z,42.50
2019-06-15T14:12:19.824Z,42.70
2019-06-15T14:14:48.200Z,43.91
2019-06-15T14:17:17.486Z,44.24
2019-06-15T14:19:45.823Z,44.38
2019-06-15T14:22:17.321Z,45.50
2019-06-15T14:24:45.673Z,45.96
2019-06-15T14:27:17.965Z,46.05
2019-06-15T14:29:47.152Z,45.82
2019-06-15T14:32:34.767Z,46.39
2019-06-15T14:35:13.481Z,47.75
2019-06-15T14:37:42.777Z,49.54
2019-06-15T14:43:16.293Z,49.36
2019-06-15T14:45:58.580Z,49.37
2019-06-15T14:50:47.270Z,51.35
2019-06-15T14:53:36.647Z,51.63
2019-06-15T14:58:39.846Z,51.63
2019-06-15T15:01:08.202Z,52.19
2019-06-15T15:03:37.674Z,52.02
2019-06-15T15:06:10.530Z,52.27
2019-06-15T15:08:39.779Z,51.82
2019-06-15T15:11:11.177Z,51.93
2019-06-15T15:16:17.836Z,51.15
2019-06-15T15:18:46.327Z,52.07
2019-06-15T15:21:12.461Z,51.62
2019-06-15T15:23:40.813Z,51.59
2019-06-15T15:26:39.423Z,52.41
2019-06-15T15:29:20.431Z,53.54
2019-06-15T15:31:48.828Z,53.03
2019-06-15T15:34:29.260Z,53.96
2019-06-15T15:36:57.631Z,53.92
2019-06-15T15:39:40.677Z,52.30
2019-06-15T15:42:16.938Z,52.66
2019-06-15T15:44:43.311Z,52.27
2019-06-15T15:47:38.160Z,53.08
2019-06-15T15:50:07.523Z,53.63
2019-06-15T15:52:40.108Z,54.24
2019-06-15T15:55:38.323Z,54.11
2019-06-15T15:58:38.049Z,54.32
2019-06-15T16:01:07.320Z,54.47
2019-06-15T16:03:40.116Z,54.91
2019-06-15T16:06:38.389Z,55.00
2019-06-15T16:09:27.216Z,54.62
2019-06-15T16:11:56.490Z,56.21
2019-06-15T16:14:27.309Z,56.34
2019-06-15T16:16:56.091Z,56.04
2019-06-15T16:19:26.365Z,54.61
2019-06-15T16:21:56.057Z,55.25
2019-06-15T16:24:39.446Z,56.25
2019-06-15T16:27:27.824Z,55.39
2019-06-15T16:29:56.958Z,55.04
2019-06-15T16:32:26.374Z,54.30
2019-06-15T16:35:09.929Z,54.21
2019-06-15T16:37:45.139Z,53.96
2019-06-15T16:40:15.693Z,53.94
2019-06-15T16:42:48.865Z,53.35
2019-06-15T16:45:17.243Z,54.65
2019-06-15T16:47:51.592Z,54.46
2019-06-15T16:50:19.938Z,53.74
2019-06-15T16:52:51.537Z,53.25
2019-06-15T16:55:20.513Z,53.27
2019-06-15T16:57:50.759Z,53.12
2019-06-15T17:00:19.102Z,53.30
2019-06-15T17:02:50.997Z,53.54
2019-06-15T17:05:19.424Z,53.06
2019-06-15T17:10:27.022Z,53.08
2019-06-15T17:13:03.271Z,55.76
2019-06-15T17:20:46.595Z,57.60
2019-06-15T17:23:16.391Z,57.73
2019-06-15T17:28:20.039Z,57.37
2019-06-15T17:31:00.890Z,57.23
2019-06-15T17:33:37.470Z,59.61
2019-06-15T17:38:53.845Z,60.07
2019-06-15T17:41:22.210Z,61.40
2019-06-15T17:43:50.588Z,61.29
2019-06-15T17:46:18.917Z,62.50
2019-06-15T17:48:58.020Z,63.14
2019-06-15T17:51:26.906Z,62.55
2019-06-15T17:56:53.018Z,62.16
2019-06-15T17:59:22.523Z,62.55
2019-06-15T18:02:10.808Z,65.89
2019-06-15T18:05:10.268Z,67.64
2019-06-15T18:07:42.461Z,68.20
2019-06-15T18:10:11.787Z,66.46
2019-06-15T18:13:04.040Z,67.33
2019-06-15T18:18:12.508Z,66.20
2019-06-15T18:20:56.851Z,65.40
2019-06-15T18:23:24.151Z,65.03
2019-06-15T18:26:11.343Z,66.27
2019-06-15T18:31:16.415Z,65.39
2019-06-15T18:34:13.278Z,66.16
2019-06-15T18:37:10.411Z,65.37
2019-06-15T18:39:38.761Z,67.01
2019-06-15T18:42:11.441Z,68.51
2019-06-15T18:47:16.613Z,68.25
2019-06-15T18:52:20.827Z,70.23
2019-06-15T18:54:56.046Z,70.76
2019-06-15T18:57:22.730Z,70.59
2019-06-15T18:59:56.971Z,70.67
2019-06-15T19:02:26.686Z,70.53
2019-06-15T19:07:28.004Z,71.06
2019-06-15T19:10:10.532Z,71.74
2019-06-15T19:15:16.779Z,70.63
2019-06-15T19:17:46.338Z,70.12
2019-06-15T19:20:13.996Z,71.35
2019-06-15T19:25:16.721Z,71.42
2019-06-15T19:28:08.842Z,69.64
2019-06-15T19:30:56.088Z,70.57
2019-06-15T19:33:22.420Z,71.69
2019-06-15T19:35:56.715Z,71.75
2019-06-15T19:38:23.467Z,72.90
2019-06-15T19:40:57.216Z,73.04
2019-06-15T19:43:25.638Z,73.71
2019-06-15T19:46:06.770Z,72.85
2019-06-15T19:48:58.216Z,72.63
2019-06-15T19:51:29.033Z,72.69
2019-06-15T19:56:30.193Z,73.69
2019-06-15T20:01:54.860Z,71.42
2019-06-15T20:04:23.252Z,72.48
2019-06-15T20:06:59.024Z,72.78
2019-06-15T20:09:27.376Z,73.57
2019-06-15T20:12:18.152Z,72.99
2019-06-15T20:14:37.724Z,72.29
2019-06-15T20:17:08.043Z,71.91
2019-06-15T20:19:37.654Z,73.15
2019-06-15T20:22:10.006Z,72.16
2019-06-15T20:27:17.633Z,72.21
2019-06-15T20:30:09.415Z,73.40
2019-06-15T20:32:41.137Z,72.60
2019-06-15T20:35:17.744Z,73.44
2019-06-15T20:37:55.946Z,72.79
2019-06-15T20:40:23.750Z,73.87
2019-06-15T20:45:31.429Z,72.08
2019-06-15T20:47:57.637Z,70.92
2019-06-15T20:50:28.533Z,71.89
2019-06-15T20:53:06.053Z,73.50
2019-06-15T20:58:09.477Z,75.05
2019-06-15T21:01:02.447Z,74.30
2019-06-15T21:03:30.798Z,74.67
2019-06-15T21:06:09.564Z,77.34
2019-06-15T21:09:03.841Z,79.90
2019-06-15T21:14:09.448Z,83.43
2019-06-15T21:19:16.897Z,84.50
2019-06-15T21:21:42.638Z,85.77
2019-06-15T21:24:10.973Z,85.93
2019-06-15T21:27:07.424Z,87.55
2019-06-15T21:32:13.153Z,91.66
2019-06-15T21:35:07.500Z,90.55
2019-06-15T21:37:47.348Z,92.22
2019-06-15T21:40:47.507Z,92.35
2019-06-15T21:43:21.081Z,92.84
2019-06-15T21:45:49.430Z,95.78
2019-06-15T21:51:28.473Z,97.60
2019-06-15T21:53:56.823Z,99.09
2019-06-15T21:59:00.445Z,97.16
2019-06-15T22:01:32.108Z,98.14
2019-06-15T22:06:49.313Z,94.46
2019-06-15T22:09:36.389Z,93.52
2019-06-15T22:12:03.475Z,92.62
2019-06-15T22:14:31.853Z,93.65
2019-06-15T22:17:00.209Z,94.64
2019-06-15T22:19:49.089Z,100.00
2019-06-15T22:22:23.573Z,100.00
2019-06-15T22:24:51.931Z,100.00
2019-06-15T22:27:33.117Z,100.00
2019-06-15T22:30:01.046Z,100.00
2019-06-15T22:32:47.074Z,100.00
2019-06-15T22:35:12.151Z,100.00
2019-06-15T22:37:50.364Z,100.00
2019-06-15T22:43:18.886Z,100.00
2019-06-15T22:45:50.707Z,100.00
2019-06-15T22:48:37.577Z,100.00
2019-06-15T22:51:06.224Z,100.00
2019-06-15T22:53:33.430Z,100.00
2019-06-15T22:56:01.322Z,100.00
2019-06-15T22:58:46.219Z,100.00
2019-06-15T23:01:13.758Z,100.00
2019-06-15T23:03:47.336Z,100.00
2019-06-15T23:06:31.151Z,100.00
2019-06-15T23:08:49.536Z,100.00
2019-06-15T23:14:37.269Z,100.00
2019-06-15T23:17:03.631Z,100.00
2019-06-15T23:19:33.564Z,100.00
2019-06-15T23:22:01.399Z,100.00
2019-06-15T23:24:36.218Z,100.00
2019-06-15T23:27:11.382Z,100.00
2019-06-15T23:29:39.296Z,100.00
2019-06-15T23:32:33.016Z,100.00
2019-06-15T23:38:06.409Z,100.00
2019-06-15T23:40:32.015Z,100.00
2019-06-15T23:45:53.449Z,100.00
2019-06-15T23:48:21.403Z,100.00
2019-06-15T23:50:49.316Z,100.00
2019-06-15T23:53:17.243Z,100.00
2019-06-15T23:56:06.341Z,100.00
